This is the latest recevied weather packets stored in our database for station/object N5COP-13. If no packets are shown the sender has not sent any weather packets the latest 1 day(s).
| Time | Temp. | Humidity | Pressure | Rain* | Wind** | Luminosity | Snow |
|---|---|---|---|---|---|---|---|
| 1778096124 | 17.22° C | 41% | 1015.5 hPa | 0 mm | - | 985 W/m² | - |
| 1778095518 | 16.67° C | 42% | 1015.4 hPa | 0 mm | - | 927 W/m² | - |
| 1778094607 | 16.67° C | 44% | 1015.5 hPa | 0 mm | - | 996 W/m² | - |
| 1778093092 | 15.56° C | 44% | 1016.2 hPa | 0 mm | - | 300 W/m² | - |
| 1778092789 | 16.67° C | 44% | 1016.3 hPa | 0 mm | - | 215 W/m² | - |
| 1778091879 | 15.56° C | 45% | 1016.5 hPa | 0 mm | - | 227 W/m² | - |
| 1778091576 | 16.11° C | 46% | 1016.3 hPa | 0 mm | - | 886 W/m² | - |
| 1778090970 | 15° C | 48% | 1016.9 hPa | 0 mm | - | 971 W/m² | - |
| 1778090666 | 13.89° C | 48% | 1016.8 hPa | 0 mm | - | 955 W/m² | - |
| 1778089449 | 15° C | 49% | 1017.2 hPa | 0 mm | - | 269 W/m² | - |
| 1778088843 | 14.44° C | 50% | 1016.8 hPa | 0 mm | - | 872 W/m² | - |
| 1778088540 | 13.89° C | 50% | 1017.2 hPa | 0 mm | - | 869 W/m² | - |
| 1778087934 | 14.44° C | 50% | 1017.1 hPa | 0 mm | - | 888 W/m² | - |
| 1778087630 | 13.89° C | 52% | 1017.1 hPa | 0 mm | - | 934 W/m² | - |
| 1778087328 | 12.78° C | 51% | 1017.1 hPa | 0 mm | - | 291 W/m² | - |
| 1778087024 | 13.33° C | 51% | 1017 hPa | 0 mm | - | 850 W/m² | - |
| 1778086718 | 13.89° C | 52% | 1017 hPa | 0 mm | - | 817 W/m² | - |
| 1778083983 | 11.67° C | 58% | 1016.9 hPa | 0 mm | - | 717 W/m² | - |
| 1778081638 | 10.56° C | 62% | 1016.5 hPa | 0 mm | - | 616 W/m² | - |
| 1778081335 | 10° C | 62% | 1016.8 hPa | 0 mm | - | 615 W/m² | - |
| 1778081032 | 10° C | 62% | 1016.6 hPa | 0 mm | - | 597 W/m² | - |
| 1778080731 | 10° C | 64% | 1016.6 hPa | 0 mm | - | 581 W/m² | - |
| 1778079821 | 8.89° C | 67% | 1016.5 hPa | 0 mm | - | 540 W/m² | - |
| 1778079518 | 8.89° C | 67% | 1016.5 hPa | 0 mm | - | 512 W/m² | - |
| 1778079214 | 8.89° C | 69% | 1016.4 hPa | 0 mm | - | 493 W/m² | - |
* Rain latest hour (hover to see other rain measurements)
** Current wind speed in m/s (hover to see current wind gust speed)